sensor_id;sensor_type;location;lat;lon;timestamp;pressure;altitude;pressure_sealevel;temperature;humidity
5952;BME280;3001;42.622;23.194;2023-07-08T00:00:11;91713.09;;;21.75;94.46
5952;BME280;3001;42.622;23.194;2023-07-08T00:02:39;91718.44;;;21.79;94.21
5952;BME280;3001;42.622;23.194;2023-07-08T00:05:07;91715.06;;;21.82;94.01
5952;BME280;3001;42.622;23.194;2023-07-08T00:07:34;91719.94;;;21.80;93.23
5952;BME280;3001;42.622;23.194;2023-07-08T00:10:01;91702.34;;;21.91;92.57
5952;BME280;3001;42.622;23.194;2023-07-08T00:12:27;91702.25;;;21.84;91.95
5952;BME280;3001;42.622;23.194;2023-07-08T00:14:55;91714.97;;;21.75;92.04
5952;BME280;3001;42.622;23.194;2023-07-08T00:17:22;91700.84;;;21.64;91.04
5952;BME280;3001;42.622;23.194;2023-07-08T00:19:49;91698.38;;;21.78;91.44
5952;BME280;3001;42.622;23.194;2023-07-08T00:22:16;91705.88;;;21.72;92.95
5952;BME280;3001;42.622;23.194;2023-07-08T00:24:43;91697.78;;;21.88;92.32
5952;BME280;3001;42.622;23.194;2023-07-08T00:27:11;91695.81;;;21.81;92.29
5952;BME280;3001;42.622;23.194;2023-07-08T00:29:39;91699.44;;;21.70;91.98
5952;BME280;3001;42.622;23.194;2023-07-08T00:32:14;91702.53;;;21.75;91.03
5952;BME280;3001;42.622;23.194;2023-07-08T00:34:41;91696.88;;;21.77;90.22
5952;BME280;3001;42.622;23.194;2023-07-08T00:37:11;91690.31;;;21.67;90.92
5952;BME280;3001;42.622;23.194;2023-07-08T00:39:38;91694.53;;;21.46;91.25
5952;BME280;3001;42.622;23.194;2023-07-08T00:42:12;91688.63;;;21.82;90.82
5952;BME280;3001;42.622;23.194;2023-07-08T00:44:41;91690.00;;;22.02;90.11
5952;BME280;3001;42.622;23.194;2023-07-08T00:47:09;91684.75;;;22.05;90.22
5952;BME280;3001;42.622;23.194;2023-07-08T00:49:40;91682.06;;;22.02;90.76
5952;BME280;3001;42.622;23.194;2023-07-08T00:52:23;91687.69;;;21.97;91.04
5952;BME280;3001;42.622;23.194;2023-07-08T00:54:51;91685.22;;;21.81;91.12
5952;BME280;3001;42.622;23.194;2023-07-08T00:57:18;91679.06;;;22.03;89.04
5952;BME280;3001;42.622;23.194;2023-07-08T00:59:51;91673.38;;;22.01;89.08
5952;BME280;3001;42.622;23.194;2023-07-08T01:02:22;91678.47;;;21.87;89.95
5952;BME280;3001;42.622;23.194;2023-07-08T01:04:57;91681.06;;;21.84;90.39
5952;BME280;3001;42.622;23.194;2023-07-08T01:07:25;91678.53;;;21.91;90.07
5952;BME280;3001;42.622;23.194;2023-07-08T01:09:57;91672.19;;;21.99;89.50
5952;BME280;3001;42.622;23.194;2023-07-08T01:12:27;91676.03;;;22.05;89.22
5952;BME280;3001;42.622;23.194;2023-07-08T01:14:56;91672.66;;;22.04;88.99
5952;BME280;3001;42.622;23.194;2023-07-08T01:17:23;91668.41;;;21.96;88.88
5952;BME280;3001;42.622;23.194;2023-07-08T01:19:50;91671.41;;;21.95;90.04
5952;BME280;3001;42.622;23.194;2023-07-08T01:22:22;91666.56;;;21.71;91.16
5952;BME280;3001;42.622;23.194;2023-07-08T01:24:48;91675.41;;;21.56;92.40
5952;BME280;3001;42.622;23.194;2023-07-08T01:27:18;91660.41;;;21.37;92.44
5952;BME280;3001;42.622;23.194;2023-07-08T01:29:46;91670.53;;;21.32;93.28
5952;BME280;3001;42.622;23.194;2023-07-08T01:32:14;91671.25;;;21.29;92.78
5952;BME280;3001;42.622;23.194;2023-07-08T01:34:44;91661.97;;;21.42;92.08
5952;BME280;3001;42.622;23.194;2023-07-08T01:37:31;91658.91;;;21.36;92.01
5952;BME280;3001;42.622;23.194;2023-07-08T01:40:13;91657.66;;;21.30;91.95
5952;BME280;3001;42.622;23.194;2023-07-08T01:42:40;91654.97;;;21.27;91.88
5952;BME280;3001;42.622;23.194;2023-07-08T01:45:10;91652.63;;;21.22;91.38
5952;BME280;3001;42.622;23.194;2023-07-08T01:47:37;91656.84;;;21.26;92.54
5952;BME280;3001;42.622;23.194;2023-07-08T01:50:04;91662.38;;;21.44;91.85
5952;BME280;3001;42.622;23.194;2023-07-08T01:52:32;91653.94;;;21.35;92.46
5952;BME280;3001;42.622;23.194;2023-07-08T01:54:59;91649.44;;;21.35;92.49
5952;BME280;3001;42.622;23.194;2023-07-08T01:57:25;91653.88;;;21.31;92.37
5952;BME280;3001;42.622;23.194;2023-07-08T01:59:52;91648.88;;;21.49;91.05
5952;BME280;3001;42.622;23.194;2023-07-08T02:02:19;91656.41;;;21.47;92.74
5952;BME280;3001;42.622;23.194;2023-07-08T02:04:45;91656.09;;;21.52;92.03
5952;BME280;3001;42.622;23.194;2023-07-08T02:07:12;91653.06;;;21.53;91.62
5952;BME280;3001;42.622;23.194;2023-07-08T02:09:40;91661.84;;;21.61;90.93
5952;BME280;3001;42.622;23.194;2023-07-08T02:12:07;91653.34;;;21.45;91.59
5952;BME280;3001;42.622;23.194;2023-07-08T02:14:34;91659.59;;;21.59;90.60
5952;BME280;3001;42.622;23.194;2023-07-08T02:17:01;91661.97;;;21.42;91.55
5952;BME280;3001;42.622;23.194;2023-07-08T02:19:31;91662.34;;;21.40;92.06
5952;BME280;3001;42.622;23.194;2023-07-08T02:21:57;91655.03;;;21.56;90.95
5952;BME280;3001;42.622;23.194;2023-07-08T02:24:24;91659.66;;;21.63;90.73
5952;BME280;3001;42.622;23.194;2023-07-08T02:26:52;91661.47;;;21.59;90.93
5952;BME280;3001;42.622;23.194;2023-07-08T02:29:19;91667.28;;;21.68;90.82
5952;BME280;3001;42.622;23.194;2023-07-08T02:31:45;91666.47;;;21.64;91.16
5952;BME280;3001;42.622;23.194;2023-07-08T02:34:12;91672.53;;;21.64;91.28
5952;BME280;3001;42.622;23.194;2023-07-08T02:36:39;91663.53;;;21.72;90.36
5952;BME280;3001;42.622;23.194;2023-07-08T02:39:05;91664.25;;;21.66;90.92
5952;BME280;3001;42.622;23.194;2023-07-08T02:41:32;91662.16;;;21.56;90.74
5952;BME280;3001;42.622;23.194;2023-07-08T02:44:00;91670.03;;;21.49;90.86
5952;BME280;3001;42.622;23.194;2023-07-08T02:46:27;91670.81;;;21.53;90.19
5952;BME280;3001;42.622;23.194;2023-07-08T02:48:53;91684.22;;;21.41;89.87
5952;BME280;3001;42.622;23.194;2023-07-08T02:51:20;91681.66;;;21.44;89.74
5952;BME280;3001;42.622;23.194;2023-07-08T02:53:48;91667.72;;;21.47;91.01
5952;BME280;3001;42.622;23.194;2023-07-08T02:56:15;91664.66;;;21.45;90.10
5952;BME280;3001;42.622;23.194;2023-07-08T02:58:42;91676.69;;;21.39;91.11
5952;BME280;3001;42.622;23.194;2023-07-08T03:01:10;91675.72;;;21.51;90.51
5952;BME280;3001;42.622;23.194;2023-07-08T03:03:37;91679.47;;;21.50;91.13
5952;BME280;3001;42.622;23.194;2023-07-08T03:06:04;91679.63;;;21.34;90.00
5952;BME280;3001;42.622;23.194;2023-07-08T03:08:31;91673.56;;;21.34;90.75
5952;BME280;3001;42.622;23.194;2023-07-08T03:11:00;91680.19;;;21.47;90.79
5952;BME280;3001;42.622;23.194;2023-07-08T03:13:27;91687.22;;;21.62;90.76
5952;BME280;3001;42.622;23.194;2023-07-08T03:15:54;91685.03;;;21.67;89.63
5952;BME280;3001;42.622;23.194;2023-07-08T03:18:23;91690.13;;;21.83;89.26
5952;BME280;3001;42.622;23.194;2023-07-08T03:20:52;91684.03;;;21.79;88.84
5952;BME280;3001;42.622;23.194;2023-07-08T03:23:19;91668.59;;;21.55;89.29
5952;BME280;3001;42.622;23.194;2023-07-08T03:25:45;91665.72;;;21.63;88.64
5952;BME280;3001;42.622;23.194;2023-07-08T03:28:12;91676.16;;;21.56;89.49
5952;BME280;3001;42.622;23.194;2023-07-08T03:30:40;91673.56;;;21.34;88.49
5952;BME280;3001;42.622;23.194;2023-07-08T03:33:07;91678.59;;;21.42;88.66
5952;BME280;3001;42.622;23.194;2023-07-08T03:35:35;91661.22;;;21.41;90.12
5952;BME280;3001;42.622;23.194;2023-07-08T03:38:02;91671.41;;;21.39;90.43
5952;BME280;3001;42.622;23.194;2023-07-08T03:40:29;91670.38;;;21.47;90.15
5952;BME280;3001;42.622;23.194;2023-07-08T03:42:56;91669.81;;;21.35;91.36
5952;BME280;3001;42.622;23.194;2023-07-08T03:45:22;91666.50;;;21.41;91.26
5952;BME280;3001;42.622;23.194;2023-07-08T03:47:49;91667.72;;;21.47;91.57
5952;BME280;3001;42.622;23.194;2023-07-08T03:50:19;91656.59;;;21.35;92.40
5952;BME280;3001;42.622;23.194;2023-07-08T03:52:49;91650.19;;;21.36;91.92
5952;BME280;3001;42.622;23.194;2023-07-08T03:55:16;91649.88;;;21.41;91.01
5952;BME280;3001;42.622;23.194;2023-07-08T03:57:43;91658.38;;;21.27;90.53
5952;BME280;3001;42.622;23.194;2023-07-08T04:00:10;91652.84;;;21.36;89.54
5952;BME280;3001;42.622;23.194;2023-07-08T04:02:37;91649.47;;;21.39;90.76
5952;BME280;3001;42.622;23.194;2023-07-08T04:05:05;91662.13;;;21.52;89.50
5952;BME280;3001;42.622;23.194;2023-07-08T04:07:31;91665.00;;;21.44;89.12
5952;BME280;3001;42.622;23.194;2023-07-08T04:09:59;91663.69;;;21.57;89.86
5952;BME280;3001;42.622;23.194;2023-07-08T04:12:27;91668.94;;;21.79;89.20
5952;BME280;3001;42.622;23.194;2023-07-08T04:14:53;91664.25;;;21.99;87.12
5952;BME280;3001;42.622;23.194;2023-07-08T04:17:20;91667.94;;;22.20;86.58
5952;BME280;3001;42.622;23.194;2023-07-08T04:19:48;91664.13;;;22.18;87.44
5952;BME280;3001;42.622;23.194;2023-07-08T04:22:15;91664.13;;;22.18;85.01
5952;BME280;3001;42.622;23.194;2023-07-08T04:24:42;91671.78;;;22.26;85.00
5952;BME280;3001;42.622;23.194;2023-07-08T04:27:13;91680.16;;;22.32;86.24
5952;BME280;3001;42.622;23.194;2023-07-08T04:29:41;91670.59;;;22.24;86.90
5952;BME280;3001;42.622;23.194;2023-07-08T04:32:08;91686.19;;;22.29;86.90
5952;BME280;3001;42.622;23.194;2023-07-08T04:34:34;91692.59;;;22.28;86.79
5952;BME280;3001;42.622;23.194;2023-07-08T04:37:01;91687.78;;;22.37;86.37
5952;BME280;3001;42.622;23.194;2023-07-08T04:39:29;91688.84;;;22.32;86.21
5952;BME280;3001;42.622;23.194;2023-07-08T04:41:56;91679.94;;;22.44;86.27
5952;BME280;3001;42.622;23.194;2023-07-08T04:44:24;91679.19;;;22.43;85.73
5952;BME280;3001;42.622;23.194;2023-07-08T04:46:54;91680.41;;;22.53;85.85
5952;BME280;3001;42.622;23.194;2023-07-08T04:49:22;91690.69;;;22.58;85.59
5952;BME280;3001;42.622;23.194;2023-07-08T04:51:50;91695.28;;;22.64;84.29
5952;BME280;3001;42.622;23.194;2023-07-08T04:54:17;91686.56;;;22.60;83.83
5952;BME280;3001;42.622;23.194;2023-07-08T04:56:45;91697.06;;;22.53;84.74
5952;BME280;3001;42.622;23.194;2023-07-08T04:59:14;91697.84;;;22.54;85.60
5952;BME280;3001;42.622;23.194;2023-07-08T05:01:43;91697.31;;;22.41;85.13
5952;BME280;3001;42.622;23.194;2023-07-08T05:04:12;91706.00;;;22.38;86.21
5952;BME280;3001;42.622;23.194;2023-07-08T05:06:40;91706.75;;;22.39;84.52
5952;BME280;3001;42.622;23.194;2023-07-08T05:09:07;91697.66;;;22.07;83.77
5952;BME280;3001;42.622;23.194;2023-07-08T05:11:34;91710.16;;;22.10;85.85
5952;BME280;3001;42.622;23.194;2023-07-08T05:14:02;91716.31;;;22.17;87.02
5952;BME280;3001;42.622;23.194;2023-07-08T05:16:31;91718.22;;;22.20;88.28
5952;BME280;3001;42.622;23.194;2023-07-08T05:19:00;91710.75;;;22.29;88.76
5952;BME280;3001;42.622;23.194;2023-07-08T05:21:29;91716.19;;;22.40;88.14
5952;BME280;3001;42.622;23.194;2023-07-08T05:23:58;91718.25;;;22.24;88.58
5952;BME280;3001;42.622;23.194;2023-07-08T05:26:25;91715.38;;;22.36;86.18
5952;BME280;3001;42.622;23.194;2023-07-08T05:28:52;91720.41;;;22.44;84.15
5952;BME280;3001;42.622;23.194;2023-07-08T05:31:18;91709.06;;;22.44;85.69
5952;BME280;3001;42.622;23.194;2023-07-08T05:33:45;91709.22;;;22.58;85.21
5952;BME280;3001;42.622;23.194;2023-07-08T05:36:13;91706.63;;;22.61;83.09
5952;BME280;3001;42.622;23.194;2023-07-08T05:38:40;91708.34;;;22.47;83.45
5952;BME280;3001;42.622;23.194;2023-07-08T05:41:06;91717.03;;;22.47;84.88
5952;BME280;3001;42.622;23.194;2023-07-08T05:43:33;91720.66;;;22.36;84.30
5952;BME280;3001;42.622;23.194;2023-07-08T05:46:01;91729.22;;;22.52;84.25
5952;BME280;3001;42.622;23.194;2023-07-08T05:48:28;91727.47;;;22.66;83.88
5952;BME280;3001;42.622;23.194;2023-07-08T05:50:55;91729.09;;;22.78;84.09
5952;BME280;3001;42.622;23.194;2023-07-08T05:53:23;91738.56;;;22.79;84.15
5952;BME280;3001;42.622;23.194;2023-07-08T05:55:50;91731.81;;;22.85;82.44
5952;BME280;3001;42.622;23.194;2023-07-08T05:58:17;91739.06;;;22.88;82.47
5952;BME280;3001;42.622;23.194;2023-07-08T06:00:44;91740.16;;;22.87;82.30
5952;BME280;3001;42.622;23.194;2023-07-08T06:03:11;91741.72;;;22.91;81.67
5952;BME280;3001;42.622;23.194;2023-07-08T06:05:37;91735.97;;;22.86;83.08
5952;BME280;3001;42.622;23.194;2023-07-08T06:08:05;91745.50;;;22.90;83.33
5952;BME280;3001;42.622;23.194;2023-07-08T06:10:34;91750.84;;;22.93;83.93
5952;BME280;3001;42.622;23.194;2023-07-08T06:13:00;91753.13;;;22.95;83.21
5952;BME280;3001;42.622;23.194;2023-07-08T06:15:27;91743.69;;;22.97;83.55
5952;BME280;3001;42.622;23.194;2023-07-08T06:17:54;91753.59;;;23.04;83.44
5952;BME280;3001;42.622;23.194;2023-07-08T06:20:20;91752.50;;;23.08;83.69
5952;BME280;3001;42.622;23.194;2023-07-08T06:22:47;91746.81;;;23.10;83.10
5952;BME280;3001;42.622;23.194;2023-07-08T06:25:14;91759.69;;;23.08;83.75
5952;BME280;3001;42.622;23.194;2023-07-08T06:27:42;91766.13;;;23.07;83.78
5952;BME280;3001;42.622;23.194;2023-07-08T06:30:09;91772.25;;;23.11;83.66
5952;BME280;3001;42.622;23.194;2023-07-08T06:32:36;91761.34;;;23.19;82.29
5952;BME280;3001;42.622;23.194;2023-07-08T06:35:03;91761.69;;;23.14;81.31
5952;BME280;3001;42.622;23.194;2023-07-08T06:37:30;91763.25;;;23.22;80.03
5952;BME280;3001;42.622;23.194;2023-07-08T06:39:57;91757.00;;;23.04;80.89
5952;BME280;3001;42.622;23.194;2023-07-08T06:42:23;91758.91;;;23.04;81.55
5952;BME280;3001;42.622;23.194;2023-07-08T06:44:51;91759.41;;;23.16;81.17
5952;BME280;3001;42.622;23.194;2023-07-08T06:47:19;91767.47;;;23.27;80.97
5952;BME280;3001;42.622;23.194;2023-07-08T06:49:46;91762.69;;;23.06;80.06
5952;BME280;3001;42.622;23.194;2023-07-08T06:52:13;91765.31;;;23.03;79.96
5952;BME280;3001;42.622;23.194;2023-07-08T06:54:40;91763.41;;;23.00;81.15
5952;BME280;3001;42.622;23.194;2023-07-08T06:57:07;91761.78;;;22.89;81.56
5952;BME280;3001;42.622;23.194;2023-07-08T06:59:34;91760.97;;;22.85;83.39
5952;BME280;3001;42.622;23.194;2023-07-08T07:02:03;91762.59;;;22.96;83.37
5952;BME280;3001;42.622;23.194;2023-07-08T07:04:29;91762.63;;;22.99;83.82
5952;BME280;3001;42.622;23.194;2023-07-08T07:06:57;91765.56;;;22.91;81.19
5952;BME280;3001;42.622;23.194;2023-07-08T07:09:24;91770.25;;;23.04;80.77
5952;BME280;3001;42.622;23.194;2023-07-08T07:11:51;91766.72;;;23.30;79.00
5952;BME280;3001;42.622;23.194;2023-07-08T07:14:17;91784.53;;;23.29;77.90
5952;BME280;3001;42.622;23.194;2023-07-08T07:16:44;91792.16;;;23.38;76.25
5952;BME280;3001;42.622;23.194;2023-07-08T07:19:12;91790.97;;;23.28;75.01
5952;BME280;3001;42.622;23.194;2023-07-08T07:21:39;91796.63;;;23.27;75.89
5952;BME280;3001;42.622;23.194;2023-07-08T07:24:06;91798.50;;;23.23;76.51
5952;BME280;3001;42.622;23.194;2023-07-08T07:26:33;91801.06;;;23.16;78.48
5952;BME280;3001;42.622;23.194;2023-07-08T07:29:02;91801.16;;;23.23;77.24
5952;BME280;3001;42.622;23.194;2023-07-08T07:31:28;91805.31;;;23.24;77.21
5952;BME280;3001;42.622;23.194;2023-07-08T07:33:56;91808.16;;;23.08;78.96
5952;BME280;3001;42.622;23.194;2023-07-08T07:36:24;91810.63;;;23.24;80.39
5952;BME280;3001;42.622;23.194;2023-07-08T07:38:51;91809.69;;;23.09;81.17
5952;BME280;3001;42.622;23.194;2023-07-08T07:41:18;91804.47;;;23.16;80.50
5952;BME280;3001;42.622;23.194;2023-07-08T07:43:44;91809.78;;;23.16;77.12
5952;BME280;3001;42.622;23.194;2023-07-08T07:46:11;91809.84;;;23.23;78.86
5952;BME280;3001;42.622;23.194;2023-07-08T07:48:39;91799.00;;;23.35;80.57
5952;BME280;3001;42.622;23.194;2023-07-08T07:51:06;91802.25;;;23.65;79.06
5952;BME280;3001;42.622;23.194;2023-07-08T07:53:37;91802.53;;;23.93;79.32
5952;BME280;3001;42.622;23.194;2023-07-08T07:56:04;91808.72;;;24.11;77.55
5952;BME280;3001;42.622;23.194;2023-07-08T07:58:32;91808.31;;;24.13;75.90
5952;BME280;3001;42.622;23.194;2023-07-08T08:00:59;91808.78;;;24.25;75.58
5952;BME280;3001;42.622;23.194;2023-07-08T08:03:25;91815.34;;;24.45;77.20
5952;BME280;3001;42.622;23.194;2023-07-08T08:05:52;91811.75;;;24.81;74.71
5952;BME280;3001;42.622;23.194;2023-07-08T08:08:19;91807.94;;;24.75;74.05
5952;BME280;3001;42.622;23.194;2023-07-08T08:10:49;91811.72;;;24.71;75.95
5952;BME280;3001;42.622;23.194;2023-07-08T08:13:15;91823.91;;;24.82;72.60
5952;BME280;3001;42.622;23.194;2023-07-08T08:15:42;91824.69;;;24.86;71.44
5952;BME280;3001;42.622;23.194;2023-07-08T08:18:09;91819.38;;;24.89;71.46
5952;BME280;3001;42.622;23.194;2023-07-08T08:20:36;91812.97;;;25.01;71.71
5952;BME280;3001;42.622;23.194;2023-07-08T08:23:05;91820.97;;;25.04;72.00
5952;BME280;3001;42.622;23.194;2023-07-08T08:25:32;91816.38;;;24.98;69.93
5952;BME280;3001;42.622;23.194;2023-07-08T08:28:00;91816.06;;;25.20;70.63
5952;BME280;3001;42.622;23.194;2023-07-08T08:30:26;91820.28;;;25.35;71.34
5952;BME280;3001;42.622;23.194;2023-07-08T08:32:53;91824.06;;;25.20;71.33
5952;BME280;3001;42.622;23.194;2023-07-08T08:35:20;91827.50;;;25.24;72.21
5952;BME280;3001;42.622;23.194;2023-07-08T08:37:46;91822.19;;;25.28;69.24
5952;BME280;3001;42.622;23.194;2023-07-08T08:40:15;91815.72;;;25.22;71.16
5952;BME280;3001;42.622;23.194;2023-07-08T08:42:44;91814.59;;;25.26;67.50
5952;BME280;3001;42.622;23.194;2023-07-08T08:45:17;91809.66;;;25.35;70.84
5952;BME280;3001;42.622;23.194;2023-07-08T08:47:47;91805.13;;;25.43;70.07
5952;BME280;3001;42.622;23.194;2023-07-08T08:50:28;91802.84;;;25.55;73.07
5952;BME280;3001;42.622;23.194;2023-07-08T08:52:57;91789.19;;;25.85;70.64
5952;BME280;3001;42.622;23.194;2023-07-08T08:55:25;91805.94;;;26.06;73.30
5952;BME280;3001;42.622;23.194;2023-07-08T09:00:55;91808.94;;;26.40;73.71
5952;BME280;3001;42.622;23.194;2023-07-08T09:03:34;91811.94;;;26.63;73.50
5952;BME280;3001;42.622;23.194;2023-07-08T09:06:09;91809.59;;;26.71;70.89
5952;BME280;3001;42.622;23.194;2023-07-08T09:08:37;91795.41;;;26.95;69.63
5952;BME280;3001;42.622;23.194;2023-07-08T09:11:16;91804.91;;;27.17;67.51
5952;BME280;3001;42.622;23.194;2023-07-08T09:13:45;91808.97;;;27.36;64.27
5952;BME280;3001;42.622;23.194;2023-07-08T09:16:20;91802.50;;;27.37;65.84
5952;BME280;3001;42.622;23.194;2023-07-08T09:18:59;91805.44;;;27.53;65.80
5952;BME280;3001;42.622;23.194;2023-07-08T09:21:30;91798.16;;;27.60;65.34
5952;BME280;3001;42.622;23.194;2023-07-08T09:24:02;91801.63;;;27.54;65.91
5952;BME280;3001;42.622;23.194;2023-07-08T09:26:32;91795.81;;;27.73;65.76
5952;BME280;3001;42.622;23.194;2023-07-08T09:28:59;91780.94;;;27.68;68.14
5952;BME280;3001;42.622;23.194;2023-07-08T09:31:30;91785.88;;;27.73;66.80
5952;BME280;3001;42.622;23.194;2023-07-08T09:34:07;91791.47;;;27.89;68.80
5952;BME280;3001;42.622;23.194;2023-07-08T09:36:33;91792.81;;;28.11;65.67
5952;BME280;3001;42.622;23.194;2023-07-08T09:39:00;91780.78;;;28.37;65.80
5952;BME280;3001;42.622;23.194;2023-07-08T09:41:30;91787.56;;;28.45;66.16
5952;BME280;3001;42.622;23.194;2023-07-08T09:44:21;91799.41;;;28.44;60.31
5952;BME280;3001;42.622;23.194;2023-07-08T09:46:52;91794.47;;;28.42;59.54
5952;BME280;3001;42.622;23.194;2023-07-08T09:49:22;91787.38;;;28.22;62.53
5952;BME280;3001;42.622;23.194;2023-07-08T09:51:50;91787.88;;;28.10;63.13
5952;BME280;3001;42.622;23.194;2023-07-08T09:54:18;91782.84;;;28.15;63.61
5952;BME280;3001;42.622;23.194;2023-07-08T09:56:52;91787.00;;;28.23;64.96
5952;BME280;3001;42.622;23.194;2023-07-08T09:59:21;91779.22;;;28.39;67.89
5952;BME280;3001;42.622;23.194;2023-07-08T10:01:50;91779.06;;;28.53;63.82
5952;BME280;3001;42.622;23.194;2023-07-08T10:04:19;91781.75;;;28.53;66.35
5952;BME280;3001;42.622;23.194;2023-07-08T10:06:46;91776.72;;;28.58;65.16
5952;BME280;3001;42.622;23.194;2023-07-08T10:09:19;91787.16;;;28.50;62.28
5952;BME280;3001;42.622;23.194;2023-07-08T10:11:52;91780.09;;;28.62;65.10
5952;BME280;3001;42.622;23.194;2023-07-08T10:14:26;91791.88;;;28.68;65.16
5952;BME280;3001;42.622;23.194;2023-07-08T10:16:54;91786.19;;;28.66;64.90
5952;BME280;3001;42.622;23.194;2023-07-08T10:19:22;91777.06;;;28.64;60.85
5952;BME280;3001;42.622;23.194;2023-07-08T10:21:57;91769.84;;;28.94;62.45
5952;BME280;3001;42.622;23.194;2023-07-08T10:24:38;91774.25;;;29.08;59.49
5952;BME280;3001;42.622;23.194;2023-07-08T10:27:15;91774.09;;;29.22;62.85
5952;BME280;3001;42.622;23.194;2023-07-08T10:29:49;91779.16;;;29.43;59.30
5952;BME280;3001;42.622;23.194;2023-07-08T10:32:28;91763.09;;;29.43;57.93
5952;BME280;3001;42.622;23.194;2023-07-08T10:35:03;91766.03;;;29.52;57.77
5952;BME280;3001;42.622;23.194;2023-07-08T10:37:47;91759.69;;;29.65;59.18
5952;BME280;3001;42.622;23.194;2023-07-08T10:40:30;91757.44;;;29.64;61.63
5952;BME280;3001;42.622;23.194;2023-07-08T10:43:11;91752.72;;;29.71;59.99
5952;BME280;3001;42.622;23.194;2023-07-08T10:45:50;91747.31;;;29.75;59.12
5952;BME280;3001;42.622;23.194;2023-07-08T10:48:41;91748.59;;;29.90;57.66
5952;BME280;3001;42.622;23.194;2023-07-08T10:51:18;91750.69;;;29.79;57.73
5952;BME280;3001;42.622;23.194;2023-07-08T10:54:03;91754.59;;;29.74;57.54
5952;BME280;3001;42.622;23.194;2023-07-08T10:56:38;91757.38;;;29.67;58.59
5952;BME280;3001;42.622;23.194;2023-07-08T10:59:28;91747.09;;;29.66;57.90
5952;BME280;3001;42.622;23.194;2023-07-08T11:02:19;91747.78;;;29.70;61.63
5952;BME280;3001;42.622;23.194;2023-07-08T11:04:58;91742.91;;;29.88;58.37
5952;BME280;3001;42.622;23.194;2023-07-08T11:07:36;91740.97;;;29.88;58.64
5952;BME280;3001;42.622;23.194;2023-07-08T11:10:07;91743.94;;;29.94;54.80
5952;BME280;3001;42.622;23.194;2023-07-08T11:12:41;91746.84;;;29.80;53.28
5952;BME280;3001;42.622;23.194;2023-07-08T11:15:16;91743.44;;;29.53;54.91
5952;BME280;3001;42.622;23.194;2023-07-08T11:17:49;91741.66;;;29.43;58.05
5952;BME280;3001;42.622;23.194;2023-07-08T11:20:21;91732.34;;;29.54;59.59
5952;BME280;3001;42.622;23.194;2023-07-08T11:22:54;91739.13;;;29.59;54.85
5952;BME280;3001;42.622;23.194;2023-07-08T11:25:24;91743.34;;;29.33;56.02
5952;BME280;3001;42.622;23.194;2023-07-08T11:27:55;91735.72;;;29.28;57.94
5952;BME280;3001;42.622;23.194;2023-07-08T11:30:24;91743.22;;;29.40;58.02
5952;BME280;3001;42.622;23.194;2023-07-08T11:32:58;91732.34;;;29.54;53.19
5952;BME280;3001;42.622;23.194;2023-07-08T11:35:34;91726.69;;;29.49;56.01
5952;BME280;3001;42.622;23.194;2023-07-08T11:38:04;91727.16;;;29.67;58.15
5952;BME280;3001;42.622;23.194;2023-07-08T11:40:32;91733.91;;;29.75;56.57
5952;BME280;3001;42.622;23.194;2023-07-08T11:43:05;91739.00;;;29.92;56.88
5952;BME280;3001;42.622;23.194;2023-07-08T11:45:34;91737.03;;;29.96;57.57
5952;BME280;3001;42.622;23.194;2023-07-08T11:48:05;91726.84;;;30.11;52.61
5952;BME280;3001;42.622;23.194;2023-07-08T11:50:37;91733.22;;;30.40;54.69
5952;BME280;3001;42.622;23.194;2023-07-08T11:53:09;91732.94;;;30.34;53.87
5952;BME280;3001;42.622;23.194;2023-07-08T11:55:38;91733.69;;;30.35;52.67
5952;BME280;3001;42.622;23.194;2023-07-08T11:58:19;91736.03;;;30.33;51.22
5952;BME280;3001;42.622;23.194;2023-07-08T12:00:57;91729.50;;;30.34;55.35
5952;BME280;3001;42.622;23.194;2023-07-08T12:03:35;91724.38;;;30.20;55.75
5952;BME280;3001;42.622;23.194;2023-07-08T12:06:40;91721.53;;;30.07;55.42
5952;BME280;3001;42.622;23.194;2023-07-08T12:09:15;91730.91;;;29.96;55.12
5952;BME280;3001;42.622;23.194;2023-07-08T12:11:48;91738.63;;;29.90;53.45
5952;BME280;3001;42.622;23.194;2023-07-08T12:14:17;91731.06;;;29.85;53.24
5952;BME280;3001;42.622;23.194;2023-07-08T12:16:44;91727.88;;;29.71;52.91
5952;BME280;3001;42.622;23.194;2023-07-08T12:19:16;91731.06;;;29.62;55.70
5952;BME280;3001;42.622;23.194;2023-07-08T12:21:44;91736.66;;;29.45;58.01
5952;BME280;3001;42.622;23.194;2023-07-08T12:24:13;91720.91;;;29.50;52.80
5952;BME280;3001;42.622;23.194;2023-07-08T12:26:41;91722.69;;;29.60;58.74
5952;BME280;3001;42.622;23.194;2023-07-08T12:29:10;91726.00;;;29.68;55.44
5952;BME280;3001;42.622;23.194;2023-07-08T12:31:38;91726.81;;;29.88;50.31
5952;BME280;3001;42.622;23.194;2023-07-08T12:34:10;91734.56;;;29.82;51.51
5952;BME280;3001;42.622;23.194;2023-07-08T12:36:39;91732.03;;;29.49;56.12
5952;BME280;3001;42.622;23.194;2023-07-08T12:39:08;91739.50;;;29.34;55.24
5952;BME280;3001;42.622;23.194;2023-07-08T12:41:38;91744.00;;;29.11;52.36
5952;BME280;3001;42.622;23.194;2023-07-08T12:44:14;91736.69;;;28.85;54.99
5952;BME280;3001;42.622;23.194;2023-07-08T12:46:44;91740.91;;;28.82;53.49
5952;BME280;3001;42.622;23.194;2023-07-08T12:49:12;91725.75;;;28.72;52.65
5952;BME280;3001;42.622;23.194;2023-07-08T12:51:42;91725.47;;;28.63;53.39
5952;BME280;3001;42.622;23.194;2023-07-08T12:54:10;91731.47;;;28.41;54.54
5952;BME280;3001;42.622;23.194;2023-07-08T12:56:39;91732.63;;;28.40;55.30
5952;BME280;3001;42.622;23.194;2023-07-08T12:59:12;91733.47;;;28.34;57.97
5952;BME280;3001;42.622;23.194;2023-07-08T13:01:40;91734.56;;;28.36;56.18
5952;BME280;3001;42.622;23.194;2023-07-08T13:04:10;91720.84;;;28.34;61.45
5952;BME280;3001;42.622;23.194;2023-07-08T13:06:39;91737.47;;;28.49;60.89
5952;BME280;3001;42.622;23.194;2023-07-08T13:09:11;91727.47;;;28.56;60.02
5952;BME280;3001;42.622;23.194;2023-07-08T13:11:46;91729.66;;;28.64;61.15
5952;BME280;3001;42.622;23.194;2023-07-08T13:14:14;91730.00;;;28.66;60.15
5952;BME280;3001;42.622;23.194;2023-07-08T13:16:41;91730.53;;;28.88;58.61
5952;BME280;3001;42.622;23.194;2023-07-08T13:19:11;91726.63;;;28.96;58.42
5952;BME280;3001;42.622;23.194;2023-07-08T13:21:39;91722.44;;;28.95;58.84
5952;BME280;3001;42.622;23.194;2023-07-08T13:24:07;91730.53;;;29.18;60.55